createdAt,value
2022-09-12T00:02:50.090Z,33.10
2022-09-12T00:07:49.445Z,27.10
2022-09-12T00:12:48.708Z,24.70
2022-09-12T00:17:48.950Z,26.40
2022-09-12T00:22:47.114Z,22.50
2022-09-12T00:27:46.273Z,26.80
2022-09-12T00:32:45.379Z,21.80
2022-09-12T00:37:44.696Z,19.70
2022-09-12T00:42:45.003Z,18.60
2022-09-12T00:47:43.374Z,16.10
2022-09-12T00:52:42.533Z,16.50
2022-09-12T00:57:43.864Z,19.10
2022-09-12T01:02:41.154Z,20.40
2022-09-12T01:07:40.313Z,20.00
2022-09-12T01:12:39.815Z,16.70
2022-09-12T01:17:40.974Z,19.40
2022-09-12T01:22:37.259Z,14.10
2022-09-12T01:27:38.547Z,14.20
2022-09-12T01:32:36.827Z,12.80
2022-09-12T01:37:36.164Z,12.90
2022-09-12T01:42:35.272Z,13.60
2022-09-12T01:47:34.602Z,10.40
2022-09-12T01:52:33.916Z,11.10
2022-09-12T01:57:33.220Z,9.70
2022-09-12T02:02:33.562Z,10.50
2022-09-12T02:07:31.927Z,10.70
2022-09-12T02:12:31.144Z,15.10
2022-09-12T02:17:30.266Z,7.70
2022-09-12T02:22:29.582Z,5.60
2022-09-12T02:27:28.723Z,5.80
2022-09-12T02:32:28.877Z,6.90
2022-09-12T02:37:27.196Z,4.60
2022-09-12T02:42:26.535Z,5.40
2022-09-12T02:47:25.646Z,5.20
2022-09-12T02:52:23.990Z,4.80
2022-09-12T02:57:24.110Z,4.70
2022-09-12T03:02:24.501Z,5.80
2022-09-12T03:07:22.638Z,4.40
2022-09-12T03:12:21.751Z,4.00
2022-09-12T03:17:22.068Z,3.90
2022-09-12T03:22:20.354Z,4.10
2022-09-12T03:27:19.643Z,4.10
2022-09-12T03:32:18.958Z,3.90
2022-09-12T03:37:17.421Z,4.00
2022-09-12T03:42:19.525Z,3.00
2022-09-12T03:47:17.926Z,2.60
2022-09-12T03:52:17.076Z,3.50
2022-09-12T03:57:15.193Z,4.80
2022-09-12T04:02:15.588Z,3.00
2022-09-12T04:07:13.681Z,1.90
2022-09-12T04:12:13.013Z,2.70
2022-09-12T04:17:12.296Z,2.60
2022-09-12T04:22:12.597Z,3.30
2022-09-12T04:27:10.873Z,2.80
2022-09-12T04:32:10.191Z,3.90
2022-09-12T04:37:08.505Z,2.90
2022-09-12T04:42:08.706Z,2.40
2022-09-12T04:47:08.877Z,2.90
2022-09-12T04:52:08.171Z,4.10
2022-09-12T04:57:08.308Z,2.80
2022-09-12T05:02:06.461Z,3.90
2022-09-12T05:07:06.594Z,4.90
2022-09-12T05:12:05.330Z,2.00
2022-09-12T05:17:03.267Z,2.80
2022-09-12T05:22:03.388Z,3.10
2022-09-12T05:27:02.761Z,2.90
2022-09-12T05:32:01.882Z,3.10
2022-09-12T05:37:02.016Z,2.90
2022-09-12T05:41:59.364Z,4.00
2022-09-12T05:47:00.471Z,3.10
2022-09-12T05:51:57.768Z,3.00
2022-09-12T05:56:58.085Z,1.60
2022-09-12T06:01:57.387Z,2.70
2022-09-12T06:06:55.695Z,3.20
2022-09-12T06:11:55.010Z,3.70
2022-09-12T06:16:55.335Z,2.90
2022-09-12T06:21:53.511Z,1.20
2022-09-12T06:26:52.750Z,1.10
2022-09-12T06:31:50.955Z,2.10
2022-09-12T06:36:51.154Z,2.60
2022-09-12T06:41:49.623Z,3.90
2022-09-12T06:46:49.711Z,1.30
2022-09-12T06:51:48.865Z,0.70
2022-09-12T06:56:47.165Z,1.40
2022-09-12T07:01:46.451Z,2.30
2022-09-12T07:06:46.623Z,1.50
2022-09-12T07:11:47.216Z,3.50
2022-09-12T07:16:45.008Z,4.30
2022-09-12T07:21:43.143Z,3.50
2022-09-12T07:26:43.429Z,4.30
2022-09-12T07:31:42.664Z,4.40
2022-09-12T07:36:41.809Z,3.30
2022-09-12T07:41:41.000Z,3.80
2022-09-12T07:46:40.232Z,3.70
2022-09-12T07:51:39.386Z,2.20
2022-09-12T07:56:39.548Z,4.90
2022-09-12T08:01:37.985Z,3.40
2022-09-12T08:06:37.072Z,4.80
2022-09-12T08:11:37.294Z,6.40
2022-09-12T08:16:36.404Z,2.90
2022-09-12T08:21:34.723Z,2.60
2022-09-12T08:26:33.866Z,3.30
2022-09-12T08:31:32.987Z,1.90
2022-09-12T08:36:32.108Z,1.50
2022-09-12T08:41:33.424Z,1.60
2022-09-12T08:46:30.731Z,3.30
2022-09-12T08:51:32.056Z,2.20
2022-09-12T08:56:32.512Z,4.40
2022-09-12T09:01:28.646Z,1.60
2022-09-12T09:06:27.763Z,2.50
2022-09-12T09:11:27.084Z,3.30
2022-09-12T09:16:27.418Z,1.10
2022-09-12T09:21:27.541Z,2.50
2022-09-12T09:26:23.823Z,1.40
2022-09-12T09:31:28.211Z,1.60
2022-09-12T09:36:24.296Z,1.60
2022-09-12T09:41:22.604Z,1.40
2022-09-12T09:46:24.037Z,1.70
2022-09-12T09:51:21.171Z,1.00
2022-09-12T09:56:23.163Z,2.70
2022-09-12T10:01:19.712Z,1.00
2022-09-12T10:06:18.813Z,1.40
2022-09-12T10:11:17.101Z,2.20
2022-09-12T10:16:18.481Z,1.70
2022-09-12T10:21:17.601Z,2.50
2022-09-12T10:26:16.920Z,1.80
2022-09-12T10:31:16.317Z,1.10
2022-09-12T10:36:15.408Z,1.20
2022-09-12T10:41:13.737Z,1.50
2022-09-12T10:46:12.983Z,1.60
2022-09-12T10:51:14.170Z,2.20
2022-09-12T10:56:11.456Z,1.40
2022-09-12T11:01:11.799Z,1.60
2022-09-12T11:06:11.911Z,1.30
2022-09-12T11:11:10.250Z,2.00
2022-09-12T11:16:09.616Z,2.00
2022-09-12T11:21:08.738Z,1.30
2022-09-12T11:26:08.072Z,1.50
2022-09-12T11:31:06.221Z,1.40
2022-09-12T11:36:05.382Z,0.90
2022-09-12T11:41:04.727Z,2.10
2022-09-12T11:46:04.155Z,2.30
2022-09-12T11:51:04.265Z,0.80
2022-09-12T11:56:02.594Z,1.00
2022-09-12T12:01:01.919Z,1.10
2022-09-12T12:06:01.236Z,1.30
2022-09-12T12:11:00.584Z,2.80
2022-09-12T12:16:00.984Z,1.50
2022-09-12T12:20:59.112Z,2.20
2022-09-12T12:25:58.438Z,1.70
2022-09-12T12:30:57.758Z,2.00
2022-09-12T12:35:56.100Z,2.50
2022-09-12T12:40:56.231Z,2.10
2022-09-12T12:45:55.570Z,3.00
2022-09-12T12:50:54.878Z,3.10
2022-09-12T12:55:54.180Z,2.10
2022-09-12T13:00:53.478Z,2.40
2022-09-12T13:05:54.781Z,3.20
2022-09-12T13:10:52.060Z,2.60
2022-09-12T13:15:51.458Z,1.70
2022-09-12T13:20:51.625Z,1.80
2022-09-12T13:25:49.921Z,3.20
2022-09-12T13:30:49.332Z,2.10
2022-09-12T13:35:49.422Z,3.60
2022-09-12T13:40:49.772Z,2.60
2022-09-12T13:45:46.984Z,2.80
2022-09-12T13:50:47.166Z,2.90
2022-09-12T13:55:46.307Z,1.90
2022-09-12T14:00:46.649Z,1.80
2022-09-12T14:05:43.963Z,1.60
2022-09-12T14:10:43.279Z,1.50
2022-09-12T14:15:42.654Z,2.20
2022-09-12T14:20:42.803Z,1.70
2022-09-12T14:25:40.032Z,1.00
2022-09-12T14:30:40.251Z,2.30
2022-09-12T14:35:43.261Z,2.70
2022-09-12T14:40:37.665Z,1.00
2022-09-12T14:45:37.992Z,1.30
2022-09-12T14:50:38.290Z,1.30
2022-09-12T14:55:38.650Z,1.70
2022-09-12T15:00:40.755Z,3.50
2022-09-12T15:05:35.034Z,1.70
2022-09-12T15:10:34.359Z,1.70
2022-09-12T15:15:33.727Z,1.30
2022-09-12T15:20:32.873Z,1.10
2022-09-12T15:25:32.187Z,1.70
2022-09-12T15:30:31.512Z,1.90
2022-09-12T15:35:30.830Z,1.40
2022-09-12T15:40:31.150Z,1.20
2022-09-12T15:45:29.441Z,1.70
2022-09-12T15:50:29.777Z,1.10
2022-09-12T15:55:28.203Z,1.00
2022-09-12T16:00:27.304Z,1.40
2022-09-12T16:05:27.629Z,1.50
2022-09-12T16:10:25.945Z,0.90
2022-09-12T16:15:25.263Z,1.80
2022-09-12T16:20:24.586Z,1.20
2022-09-12T16:25:24.886Z,1.00
2022-09-12T16:30:25.214Z,2.10
2022-09-12T16:35:22.532Z,0.90
2022-09-12T16:40:22.693Z,0.60
2022-09-12T16:45:20.821Z,5.40
2022-09-12T16:50:20.152Z,0.60
2022-09-12T16:55:19.456Z,1.10
2022-09-12T17:00:19.758Z,1.30
2022-09-12T17:05:18.054Z,1.30
2022-09-12T17:10:17.363Z,1.30
2022-09-12T17:15:18.682Z,1.00
2022-09-12T17:20:15.994Z,1.50
2022-09-12T17:25:15.200Z,2.90
2022-09-12T17:30:14.339Z,3.10
2022-09-12T17:35:13.867Z,1.40
2022-09-12T17:40:12.860Z,1.10
2022-09-12T17:45:16.327Z,0.90
2022-09-12T17:50:30.725Z,1.10
2022-09-12T17:55:11.679Z,0.90
2022-09-12T18:00:09.949Z,1.70
2022-09-12T18:05:10.077Z,1.50
2022-09-12T18:10:09.386Z,2.10
2022-09-12T18:15:09.959Z,2.20
2022-09-12T18:20:07.159Z,2.60
2022-09-12T18:25:06.516Z,2.70
2022-09-12T18:30:20.512Z,3.00
2022-09-12T18:35:04.962Z,2.40
2022-09-12T18:40:06.322Z,64.70
2022-09-12T18:45:03.306Z,91.10
2022-09-12T18:50:02.221Z,99.00
2022-09-12T18:55:01.694Z,185.60
2022-09-12T19:00:03.310Z,138.60
2022-09-12T19:05:02.176Z,150.30
2022-09-12T19:10:00.766Z,302.50
2022-09-12T19:14:58.773Z,268.70
2022-09-12T19:19:57.938Z,222.40
2022-09-12T19:24:58.119Z,185.70
2022-09-12T19:29:56.294Z,197.90
2022-09-12T19:34:57.293Z,353.30
2022-09-12T19:39:53.421Z,340.00
2022-09-12T19:44:54.645Z,238.10
2022-09-12T19:49:52.767Z,218.60
2022-09-12T19:54:52.981Z,167.50
2022-09-12T19:59:50.304Z,159.00
2022-09-12T20:04:51.262Z,137.20
2022-09-12T20:09:50.545Z,164.40
2022-09-12T20:14:48.845Z,283.10
2022-09-12T20:19:48.160Z,302.10
2022-09-12T20:24:47.507Z,262.50
2022-09-12T20:29:47.608Z,194.50
2022-09-12T20:34:46.908Z,163.80
2022-09-12T20:39:50.738Z,108.20
2022-09-12T20:44:44.312Z,68.60
2022-09-12T20:49:43.493Z,56.50
2022-09-12T20:54:43.621Z,32.60
2022-09-12T20:59:42.912Z,28.80
2022-09-12T21:04:42.203Z,19.90
2022-09-12T21:09:40.529Z,47.60
2022-09-12T21:14:39.674Z,41.20
2022-09-12T21:19:38.821Z,24.30
2022-09-12T21:24:38.120Z,14.70
2022-09-12T21:29:39.369Z,11.10
2022-09-12T21:34:36.623Z,27.90
2022-09-12T21:39:35.913Z,160.20
2022-09-12T21:44:36.233Z,42.50
2022-09-12T21:49:34.530Z,25.90
2022-09-12T21:54:34.826Z,24.60
2022-09-12T21:59:33.114Z,124.90
2022-09-12T22:04:32.392Z,120.60
2022-09-12T22:09:31.802Z,95.00
2022-09-12T22:14:30.975Z,38.50
2022-09-12T22:19:30.086Z,20.70
2022-09-12T22:24:30.382Z,13.20
2022-09-12T22:29:30.678Z,6.70
2022-09-12T22:34:27.972Z,55.50
2022-09-12T22:39:29.313Z,92.60
2022-09-12T22:44:26.382Z,49.90
2022-09-12T22:49:25.676Z,26.80
2022-09-12T22:54:24.978Z,12.50
2022-09-12T22:59:24.314Z,7.80
2022-09-12T23:04:23.406Z,6.70
2022-09-12T23:09:23.741Z,4.00
2022-09-12T23:14:22.032Z,1.70
2022-09-12T23:19:21.337Z,37.50
2022-09-12T23:24:21.664Z,55.70
2022-09-12T23:29:19.974Z,28.10
2022-09-12T23:34:19.259Z,19.00
2022-09-12T23:39:19.558Z,7.20
2022-09-12T23:44:17.850Z,63.20
2022-09-12T23:49:18.131Z,60.80
2022-09-12T23:54:16.398Z,44.10
2022-09-12T23:59:15.675Z,109.80
